createdAt,value
2017-12-11T00:00:40.423Z,0.60
2017-12-11T00:03:06.655Z,0.63
2017-12-11T00:05:32.940Z,0.50
2017-12-11T00:07:59.102Z,0.50
2017-12-11T00:10:25.299Z,0.70
2017-12-11T00:12:51.506Z,0.90
2017-12-11T00:15:18.507Z,0.57
2017-12-11T00:17:44.723Z,0.67
2017-12-11T00:20:10.931Z,0.50
2017-12-11T00:22:46.187Z,1.03
2017-12-11T00:25:12.471Z,0.80
2017-12-11T00:27:39.443Z,0.70
2017-12-11T00:30:05.650Z,0.83
2017-12-11T00:32:32.584Z,0.70
2017-12-11T00:34:59.507Z,0.70
2017-12-11T00:37:25.718Z,0.70
2017-12-11T00:39:51.953Z,0.90
2017-12-11T00:42:18.148Z,0.70
2017-12-11T00:44:44.399Z,0.63
2017-12-11T00:47:10.638Z,0.60
2017-12-11T00:49:36.817Z,0.70
2017-12-11T00:52:03.760Z,0.70
2017-12-11T00:54:30.722Z,0.70
2017-12-11T00:56:56.920Z,0.50
2017-12-11T00:59:23.911Z,0.60
2017-12-11T01:01:50.143Z,0.60
2017-12-11T01:04:16.318Z,0.77
2017-12-11T01:06:43.239Z,1.30
2017-12-11T01:09:09.510Z,0.80
2017-12-11T01:11:35.711Z,0.60
2017-12-11T01:14:02.663Z,0.50
2017-12-11T01:16:29.591Z,0.50
2017-12-11T01:18:56.607Z,0.60
2017-12-11T01:21:22.850Z,0.60
2017-12-11T01:23:49.124Z,0.60
2017-12-11T01:26:16.060Z,0.60
2017-12-11T01:28:42.226Z,0.60
2017-12-11T01:31:08.503Z,0.50
2017-12-11T01:33:35.382Z,1.27
2017-12-11T01:36:02.328Z,0.53
2017-12-11T01:38:28.587Z,0.60
2017-12-11T01:40:54.835Z,0.67
2017-12-11T01:43:21.087Z,0.50
2017-12-11T01:45:47.263Z,0.50
2017-12-11T01:48:13.473Z,0.70
2017-12-11T01:50:39.731Z,0.60
2017-12-11T01:53:05.922Z,0.60
2017-12-11T01:55:32.854Z,0.60
2017-12-11T01:57:59.798Z,0.50
2017-12-11T02:00:26.754Z,0.50
2017-12-11T02:02:53.723Z,0.60
2017-12-11T02:05:19.927Z,0.53
2017-12-11T02:07:46.882Z,0.70
2017-12-11T02:10:13.103Z,0.60
2017-12-11T02:12:40.055Z,0.60
2017-12-11T02:15:06.306Z,0.50
2017-12-11T02:17:32.495Z,0.60
2017-12-11T02:19:59.489Z,0.50
2017-12-11T02:22:25.782Z,0.70
2017-12-11T02:24:51.983Z,0.50
2017-12-11T02:27:18.219Z,0.63
2017-12-11T02:29:45.204Z,0.60
2017-12-11T02:32:11.436Z,0.60
2017-12-11T02:34:37.637Z,0.60
2017-12-11T02:37:04.597Z,0.70
2017-12-11T02:39:30.781Z,0.70
2017-12-11T02:41:57.035Z,0.60
2017-12-11T02:44:23.984Z,0.43
2017-12-11T02:46:50.981Z,0.80
2017-12-11T02:49:17.214Z,0.60
2017-12-11T02:51:43.522Z,0.50
2017-12-11T02:54:09.770Z,0.60
2017-12-11T02:56:36.003Z,0.60
2017-12-11T02:59:02.190Z,0.50
2017-12-11T03:01:28.384Z,0.50
2017-12-11T03:03:54.547Z,0.60
2017-12-11T03:06:20.767Z,0.63
2017-12-11T03:08:46.999Z,0.50
2017-12-11T03:11:13.216Z,0.50
2017-12-11T03:13:39.422Z,0.60
2017-12-11T03:16:05.601Z,0.60
2017-12-11T03:18:31.783Z,0.70
2017-12-11T03:20:57.986Z,0.50
2017-12-11T03:23:24.974Z,0.40
2017-12-11T03:25:51.159Z,0.40
2017-12-11T03:28:17.330Z,0.60
2017-12-11T03:30:44.284Z,0.60
2017-12-11T03:33:10.536Z,0.50
2017-12-11T03:35:36.736Z,0.90
2017-12-11T03:38:02.937Z,0.60
2017-12-11T03:40:29.867Z,0.50
2017-12-11T03:42:56.807Z,0.40
2017-12-11T03:45:22.985Z,0.60
2017-12-11T03:47:49.221Z,0.50
2017-12-11T03:50:15.444Z,0.60
2017-12-11T03:52:41.645Z,0.70
2017-12-11T03:55:08.562Z,0.60
2017-12-11T03:57:34.775Z,0.50
2017-12-11T04:00:01.021Z,0.50
2017-12-11T04:02:27.999Z,0.50
2017-12-11T04:04:54.926Z,0.60
2017-12-11T04:07:21.875Z,0.67
2017-12-11T04:09:48.848Z,0.60
2017-12-11T04:12:15.048Z,0.93
2017-12-11T04:14:41.255Z,1.27
2017-12-11T04:17:07.494Z,0.70
2017-12-11T04:19:33.701Z,0.80
2017-12-11T04:21:59.851Z,0.57
2017-12-11T04:24:26.797Z,0.47
2017-12-11T04:26:52.959Z,0.60
2017-12-11T04:29:19.191Z,0.60
2017-12-11T04:31:45.331Z,0.50
2017-12-11T04:34:11.487Z,0.47
2017-12-11T04:36:37.656Z,0.40
2017-12-11T04:39:04.520Z,0.40
2017-12-11T04:41:30.739Z,0.53
2017-12-11T04:43:56.907Z,0.57
2017-12-11T04:46:23.098Z,0.60
2017-12-11T04:48:49.294Z,1.17
2017-12-11T04:51:16.185Z,1.57
2017-12-11T04:53:42.413Z,3.63
2017-12-11T04:56:08.588Z,3.20
2017-12-11T04:58:34.754Z,1.30
2017-12-11T05:01:00.988Z,0.80
2017-12-11T05:03:27.168Z,0.70
2017-12-11T05:05:54.121Z,0.57
2017-12-11T05:08:21.039Z,0.70
2017-12-11T05:10:47.294Z,0.70
2017-12-11T05:13:14.191Z,0.80
2017-12-11T05:15:40.364Z,0.70
2017-12-11T05:18:06.593Z,0.70
2017-12-11T05:20:33.517Z,0.67
2017-12-11T05:23:00.514Z,0.70
2017-12-11T05:25:26.757Z,0.60
2017-12-11T05:27:53.018Z,0.50
2017-12-11T05:30:19.616Z,0.80
2017-12-11T05:32:45.800Z,0.80
2017-12-11T05:35:12.046Z,1.27
2017-12-11T05:37:38.989Z,1.40
2017-12-11T05:40:05.915Z,1.77
2017-12-11T05:42:32.168Z,2.07
2017-12-11T05:44:58.447Z,1.70
2017-12-11T05:47:24.665Z,1.90
2017-12-11T05:49:50.859Z,1.90
2017-12-11T05:52:17.066Z,3.20
2017-12-11T05:54:43.244Z,1.70
2017-12-11T05:57:09.429Z,2.07
2017-12-11T05:59:36.439Z,1.83
2017-12-11T06:02:02.646Z,2.23
2017-12-11T06:04:28.850Z,2.80
2017-12-11T06:06:55.044Z,2.67
2017-12-11T06:09:22.022Z,4.50
2017-12-11T06:11:48.169Z,4.50
2017-12-11T06:14:14.327Z,4.87
2017-12-11T06:16:40.500Z,3.93
2017-12-11T06:19:06.693Z,3.17
2017-12-11T06:21:32.885Z,1.50
2017-12-11T06:23:59.079Z,1.90
2017-12-11T06:26:25.271Z,2.43
2017-12-11T06:28:51.487Z,2.17
2017-12-11T06:31:17.646Z,1.80
2017-12-11T06:33:44.608Z,2.30
2017-12-11T06:36:10.789Z,2.90
2017-12-11T06:38:37.067Z,3.80
2017-12-11T06:41:03.659Z,3.50
2017-12-11T06:43:29.875Z,2.70
2017-12-11T06:45:56.041Z,1.70
2017-12-11T06:48:23.002Z,1.87
2017-12-11T06:50:49.143Z,1.80
2017-12-11T06:53:15.311Z,1.53
2017-12-11T06:55:41.479Z,1.30
2017-12-11T06:58:08.442Z,1.23
2017-12-11T07:00:34.674Z,1.70
2017-12-11T07:03:00.814Z,2.00
2017-12-11T07:05:27.049Z,1.13
2017-12-11T07:07:53.228Z,1.40
2017-12-11T07:10:20.171Z,1.80
2017-12-11T07:12:47.159Z,1.40
2017-12-11T07:15:13.378Z,1.43
2017-12-11T07:17:39.595Z,1.57
2017-12-11T07:20:06.276Z,1.20
2017-12-11T07:22:32.509Z,1.40
2017-12-11T07:24:58.751Z,1.50
2017-12-11T07:27:24.971Z,1.60
2017-12-11T07:29:51.885Z,1.43
2017-12-11T07:32:18.079Z,2.60
2017-12-11T07:34:44.298Z,2.77
2017-12-11T07:37:11.251Z,4.23
2017-12-11T07:39:38.163Z,4.20
2017-12-11T07:42:04.347Z,4.60
2017-12-11T07:44:30.506Z,2.50
2017-12-11T07:46:56.777Z,2.40
2017-12-11T07:49:23.023Z,2.97
2017-12-11T07:51:49.224Z,1.60
2017-12-11T07:54:16.135Z,1.20
2017-12-11T07:56:42.334Z,1.63
2017-12-11T07:59:08.520Z,1.80
2017-12-11T08:01:35.492Z,1.40
2017-12-11T08:04:01.670Z,1.50
2017-12-11T08:06:27.870Z,2.00
2017-12-11T08:08:54.292Z,1.30
2017-12-11T08:11:20.535Z,2.33
2017-12-11T08:13:46.703Z,1.83
2017-12-11T08:16:12.855Z,2.97
2017-12-11T08:18:39.783Z,3.83
2017-12-11T08:21:06.754Z,2.50
2017-12-11T08:23:32.904Z,3.03
2017-12-11T08:25:59.126Z,4.00
2017-12-11T08:28:25.260Z,4.57
2017-12-11T08:30:51.525Z,3.60
2017-12-11T08:33:17.716Z,3.43
2017-12-11T08:35:43.891Z,3.87
2017-12-11T08:38:10.859Z,4.10
2017-12-11T08:40:37.003Z,4.37
2017-12-11T08:43:03.219Z,3.63
2017-12-11T08:45:29.999Z,2.47
2017-12-11T08:47:56.325Z,2.83
2017-12-11T08:50:22.465Z,3.07
2017-12-11T08:52:48.626Z,2.83
2017-12-11T08:55:15.605Z,3.03
2017-12-11T08:57:41.841Z,3.20
2017-12-11T09:00:08.093Z,2.80
2017-12-11T09:02:34.308Z,3.17
2017-12-11T09:05:00.757Z,3.10
2017-12-11T09:07:26.938Z,3.60
2017-12-11T09:09:53.202Z,2.93
2017-12-11T09:12:19.533Z,3.90
2017-12-11T09:14:45.782Z,3.57
2017-12-11T09:17:12.022Z,3.60
2017-12-11T09:19:38.987Z,3.13
2017-12-11T09:22:05.178Z,3.50
2017-12-11T09:24:32.119Z,5.47
2017-12-11T09:26:58.291Z,7.17
2017-12-11T09:29:24.424Z,5.50
2017-12-11T09:31:50.579Z,5.40
2017-12-11T09:34:16.768Z,5.07
2017-12-11T09:36:43.730Z,4.50
2017-12-11T09:39:09.943Z,4.00
2017-12-11T09:41:36.172Z,4.03
2017-12-11T09:44:02.357Z,4.77
2017-12-11T09:46:29.287Z,3.63
2017-12-11T09:48:55.546Z,3.50
2017-12-11T09:51:21.660Z,3.27
2017-12-11T09:53:48.609Z,3.60
2017-12-11T09:56:15.553Z,3.30
2017-12-11T09:58:42.447Z,3.53
2017-12-11T10:01:08.625Z,4.20
2017-12-11T10:03:34.888Z,3.63
2017-12-11T10:06:01.089Z,2.83
2017-12-11T10:08:27.317Z,3.23
2017-12-11T10:10:53.544Z,3.23
2017-12-11T10:13:19.761Z,2.83
2017-12-11T10:15:45.948Z,3.20
2017-12-11T10:18:12.171Z,3.17
2017-12-11T10:20:38.336Z,3.10
2017-12-11T10:23:04.521Z,2.60
2017-12-11T10:25:30.799Z,3.20
2017-12-11T10:27:57.774Z,2.80
2017-12-11T10:30:24.749Z,3.00
2017-12-11T10:32:50.915Z,2.50
2017-12-11T10:35:17.093Z,2.40
2017-12-11T10:37:43.271Z,2.00
2017-12-11T10:40:09.452Z,2.57
2017-12-11T10:42:35.678Z,2.40
2017-12-11T10:45:02.647Z,2.30
2017-12-11T10:47:28.861Z,2.83
2017-12-11T10:49:55.109Z,2.53
2017-12-11T10:52:21.352Z,2.70
2017-12-11T10:54:47.562Z,2.20
2017-12-11T10:57:13.756Z,2.27
2017-12-11T10:59:39.928Z,2.50
2017-12-11T11:02:06.138Z,2.87
2017-12-11T11:04:32.371Z,3.43
2017-12-11T11:06:58.587Z,2.63
2017-12-11T11:09:24.794Z,1.97
2017-12-11T11:11:51.737Z,1.90
2017-12-11T11:14:17.951Z,2.60
2017-12-11T11:16:44.886Z,2.83
2017-12-11T11:19:11.056Z,2.60
2017-12-11T11:21:37.279Z,2.70
2017-12-11T11:24:03.467Z,2.07
2017-12-11T11:26:29.658Z,2.27
2017-12-11T11:28:55.894Z,2.50
2017-12-11T11:31:22.072Z,2.60
2017-12-11T11:33:49.034Z,2.67
2017-12-11T11:36:15.200Z,2.60
2017-12-11T11:38:41.401Z,2.50
2017-12-11T11:41:07.574Z,2.33
2017-12-11T11:43:34.522Z,3.30
2017-12-11T11:46:00.709Z,4.23
2017-12-11T11:48:26.887Z,4.33
2017-12-11T11:50:53.859Z,4.60
2017-12-11T11:53:20.047Z,3.00
2017-12-11T11:55:46.296Z,2.77
2017-12-11T11:58:13.270Z,2.77
2017-12-11T12:00:39.539Z,3.80
2017-12-11T12:03:05.694Z,5.50
2017-12-11T12:05:32.638Z,4.43
2017-12-11T12:07:59.572Z,3.77
2017-12-11T12:10:25.858Z,3.33
2017-12-11T12:12:52.056Z,3.90
2017-12-11T12:15:18.310Z,3.77
2017-12-11T12:17:44.609Z,2.80
2017-12-11T12:20:10.828Z,3.20
2017-12-11T12:22:37.767Z,3.53
2017-12-11T12:25:04.710Z,3.80
2017-12-11T12:27:31.717Z,10.80
2017-12-11T12:29:57.956Z,3.60
2017-12-11T12:32:24.147Z,3.60
2017-12-11T12:34:50.312Z,3.27
2017-12-11T12:37:16.477Z,4.93
2017-12-11T12:39:43.402Z,4.10
2017-12-11T12:42:09.545Z,3.70
2017-12-11T12:44:36.446Z,4.87
2017-12-11T12:47:04.393Z,6.33
2017-12-11T12:49:30.640Z,3.63
2017-12-11T12:51:56.811Z,3.80
2017-12-11T12:54:23.735Z,5.00
2017-12-11T12:56:50.698Z,5.30
2017-12-11T12:59:17.601Z,6.80
2017-12-11T13:01:43.790Z,5.90
2017-12-11T13:04:10.703Z,7.30
2017-12-11T13:06:37.766Z,5.87
2017-12-11T13:09:04.748Z,4.73
2017-12-11T13:11:31.004Z,5.63
2017-12-11T13:13:57.138Z,5.30
2017-12-11T13:16:23.244Z,4.27
2017-12-11T13:18:49.399Z,3.97
2017-12-11T13:21:15.539Z,4.60
2017-12-11T13:23:41.727Z,5.13
2017-12-11T13:26:07.914Z,5.57
2017-12-11T13:28:34.819Z,4.10
2017-12-11T13:31:01.017Z,4.20
2017-12-11T13:33:27.246Z,2.77
2017-12-11T13:35:53.443Z,1.90
2017-12-11T13:38:20.322Z,2.10
2017-12-11T13:40:46.593Z,3.40
2017-12-11T13:43:13.511Z,2.40
2017-12-11T13:45:39.702Z,2.67
2017-12-11T13:48:05.951Z,2.57
2017-12-11T13:50:32.155Z,2.60
2017-12-11T13:52:58.301Z,2.60
2017-12-11T13:55:24.566Z,2.50
2017-12-11T13:57:51.569Z,1.67
2017-12-11T14:00:17.799Z,1.80
2017-12-11T14:02:44.032Z,1.73
2017-12-11T14:05:10.235Z,6.90
2017-12-11T14:07:36.404Z,6.80
2017-12-11T14:10:02.634Z,5.70
2017-12-11T14:12:28.764Z,4.50
2017-12-11T14:14:54.898Z,5.27
2017-12-11T14:17:21.110Z,7.40
2017-12-11T14:19:47.317Z,7.83
2017-12-11T14:22:13.514Z,2.47
2017-12-11T14:24:40.509Z,2.53
2017-12-11T14:27:06.742Z,2.20
2017-12-11T14:29:33.035Z,2.70
2017-12-11T14:31:59.239Z,3.00
2017-12-11T14:34:25.459Z,2.40
2017-12-11T14:36:52.415Z,2.00
2017-12-11T14:39:19.401Z,2.07
2017-12-11T14:41:45.639Z,3.00
2017-12-11T14:44:11.823Z,2.30
2017-12-11T14:46:38.795Z,2.30
2017-12-11T14:49:05.005Z,2.67
2017-12-11T14:51:31.164Z,2.97
2017-12-11T14:53:57.406Z,2.80
2017-12-11T14:56:24.391Z,3.15
2017-12-11T14:58:51.362Z,2.93
2017-12-11T15:01:17.605Z,2.90
2017-12-11T15:03:43.837Z,3.40
2017-12-11T15:06:10.007Z,3.87
2017-12-11T15:08:36.187Z,3.37
2017-12-11T15:11:02.394Z,3.30
2017-12-11T15:13:28.544Z,3.67
2017-12-11T15:15:54.843Z,3.50
2017-12-11T15:18:21.022Z,4.30
2017-12-11T15:20:47.158Z,4.30
2017-12-11T15:23:13.369Z,4.00
2017-12-11T15:25:39.548Z,4.10
2017-12-11T15:28:06.516Z,4.80
2017-12-11T15:30:32.784Z,3.93
2017-12-11T15:32:58.984Z,4.50
2017-12-11T15:35:25.156Z,4.10
2017-12-11T15:37:51.449Z,4.60
2017-12-11T15:40:17.698Z,4.40
2017-12-11T15:42:43.860Z,5.03
2017-12-11T15:45:10.836Z,5.00
2017-12-11T15:47:37.042Z,4.60
2017-12-11T15:50:03.256Z,3.50
2017-12-11T15:52:30.244Z,3.10
2017-12-11T15:54:56.477Z,3.83
2017-12-11T15:57:22.706Z,4.03
2017-12-11T15:59:49.000Z,3.63
2017-12-11T16:02:15.248Z,3.53
2017-12-11T16:04:41.519Z,3.53
2017-12-11T16:07:07.701Z,3.90
2017-12-11T16:09:33.917Z,3.93
2017-12-11T16:12:00.876Z,3.90
2017-12-11T16:14:27.116Z,4.47
2017-12-11T16:16:53.351Z,5.30
2017-12-11T16:19:19.570Z,6.10
2017-12-11T16:21:45.743Z,5.70
2017-12-11T16:24:11.962Z,5.50
2017-12-11T16:26:38.170Z,3.80
2017-12-11T16:29:04.386Z,3.87
2017-12-11T16:31:30.586Z,4.30
2017-12-11T16:33:57.568Z,3.70
2017-12-11T16:39:36.971Z,4.00
2017-12-11T16:42:03.153Z,3.70
2017-12-11T16:44:29.363Z,4.37
2017-12-11T16:46:55.576Z,3.70
2017-12-11T16:49:21.877Z,4.30
2017-12-11T16:51:48.586Z,4.40
2017-12-11T16:54:14.847Z,4.67
2017-12-11T16:56:41.823Z,4.63
2017-12-11T16:59:08.055Z,4.80
2017-12-11T17:01:34.272Z,7.33
2017-12-11T17:04:01.213Z,9.30
2017-12-11T17:06:28.254Z,9.10
2017-12-11T17:08:55.232Z,9.30
2017-12-11T17:11:21.395Z,8.63
2017-12-11T17:13:47.594Z,8.53
2017-12-11T17:16:13.754Z,7.50
2017-12-11T17:18:39.993Z,6.17
2017-12-11T17:21:06.222Z,6.80
2017-12-11T17:23:32.340Z,5.70
2017-12-11T17:25:58.499Z,4.80
2017-12-11T17:28:25.464Z,5.50
2017-12-11T17:30:51.690Z,4.60
2017-12-11T17:33:17.924Z,4.50
2017-12-11T17:35:44.166Z,4.60
2017-12-11T17:38:10.385Z,4.73
2017-12-11T17:40:36.535Z,4.77
2017-12-11T17:43:02.762Z,5.00
2017-12-11T17:45:28.937Z,7.33
2017-12-11T17:47:55.831Z,8.20
2017-12-11T17:50:22.041Z,6.67
2017-12-11T17:52:48.303Z,8.37
2017-12-11T17:55:15.323Z,7.33
2017-12-11T17:57:41.536Z,8.10
2017-12-11T18:00:07.732Z,8.30
2017-12-11T18:02:34.782Z,7.37
2017-12-11T18:05:01.719Z,8.23
2017-12-11T18:07:27.957Z,8.13
2017-12-11T18:09:54.875Z,7.67
2017-12-11T18:12:21.070Z,8.70
2017-12-11T18:14:47.261Z,8.80
2017-12-11T18:17:14.180Z,9.20
2017-12-11T18:19:44.212Z,9.10
2017-12-11T18:22:10.441Z,9.90
2017-12-11T18:24:37.366Z,10.67
2017-12-11T18:27:03.658Z,9.20
2017-12-11T18:29:29.881Z,9.53
2017-12-11T18:31:56.157Z,7.13
2017-12-11T18:34:22.427Z,7.10
2017-12-11T18:36:48.639Z,5.97
2017-12-11T18:39:15.610Z,6.30
2017-12-11T18:41:41.783Z,6.57
2017-12-11T18:44:07.982Z,5.80
2017-12-11T18:46:34.215Z,5.20
2017-12-11T18:49:00.428Z,5.37
2017-12-11T18:51:26.568Z,6.33
2017-12-11T18:53:52.758Z,6.90
2017-12-11T18:56:19.660Z,7.50
2017-12-11T18:58:45.868Z,9.23
2017-12-11T19:01:12.823Z,10.73
2017-12-11T19:03:39.027Z,10.13
2017-12-11T19:06:05.247Z,10.10
2017-12-11T19:08:31.475Z,9.93
2017-12-11T19:10:57.584Z,12.93
2017-12-11T19:13:24.532Z,13.77
2017-12-11T19:15:50.763Z,14.30
2017-12-11T19:18:17.017Z,12.67
2017-12-11T19:20:43.234Z,11.47
2017-12-11T19:23:09.435Z,12.43
2017-12-11T19:25:36.403Z,12.87
2017-12-11T19:28:02.563Z,11.23
2017-12-11T19:30:28.753Z,12.43
2017-12-11T19:32:54.969Z,11.00
2017-12-11T19:35:21.974Z,12.00
2017-12-11T19:37:48.211Z,19.23
2017-12-11T19:40:14.388Z,15.43
2017-12-11T19:42:40.675Z,15.20
2017-12-11T19:45:07.669Z,14.20
2017-12-11T19:47:33.867Z,13.00
2017-12-11T19:50:00.854Z,12.37
2017-12-11T19:52:27.091Z,12.00
2017-12-11T19:54:53.272Z,13.27
2017-12-11T19:57:20.238Z,13.17
2017-12-11T19:59:46.430Z,11.47
2017-12-11T20:02:12.620Z,11.90
2017-12-11T20:04:38.857Z,11.90
2017-12-11T20:07:05.081Z,11.00
2017-12-11T20:09:31.289Z,12.27
2017-12-11T20:11:57.471Z,14.17
2017-12-11T20:14:23.582Z,13.63
2017-12-11T20:16:50.698Z,14.90
2017-12-11T20:19:16.904Z,16.17
2017-12-11T20:21:43.060Z,15.03
2017-12-11T20:24:09.225Z,14.00
2017-12-11T20:29:44.542Z,12.30
2017-12-11T20:32:11.114Z,10.30
2017-12-11T20:34:37.308Z,11.43
2017-12-11T20:37:03.535Z,10.73
2017-12-11T20:39:29.732Z,10.13
2017-12-11T20:41:56.631Z,9.40
2017-12-11T20:44:22.847Z,9.03
2017-12-11T20:46:49.099Z,7.53
2017-12-11T20:49:15.344Z,5.77
2017-12-11T20:51:42.255Z,5.87
2017-12-11T20:54:08.450Z,4.90
2017-12-11T20:56:34.676Z,4.30
2017-12-11T20:59:00.827Z,3.90
2017-12-11T21:01:27.060Z,3.23
2017-12-11T21:03:53.220Z,3.50
2017-12-11T21:06:19.472Z,3.00
2017-12-11T21:08:46.469Z,3.50
2017-12-11T21:11:12.740Z,2.70
2017-12-11T21:13:39.687Z,3.13
2017-12-11T21:16:06.655Z,2.60
2017-12-11T21:18:32.926Z,3.30
2017-12-11T21:20:59.853Z,3.37
2017-12-11T21:23:26.158Z,3.03
2017-12-11T21:25:52.350Z,2.80
2017-12-11T21:28:18.637Z,2.87
2017-12-11T21:30:45.285Z,3.10
2017-12-11T21:33:11.509Z,2.57
2017-12-11T21:35:37.738Z,2.10
2017-12-11T21:38:03.975Z,2.60
2017-12-11T21:40:30.171Z,2.80
2017-12-11T21:42:56.440Z,2.60
2017-12-11T21:45:23.475Z,2.73
2017-12-11T21:47:49.633Z,3.37
2017-12-11T21:50:15.816Z,3.03
2017-12-11T21:52:42.061Z,2.70
2017-12-11T21:55:08.279Z,2.27
2017-12-11T21:57:34.482Z,4.10
2017-12-11T22:00:00.763Z,2.50
2017-12-11T22:02:26.973Z,2.97
2017-12-11T22:04:53.173Z,2.80
2017-12-11T22:07:19.377Z,3.23
2017-12-11T22:09:46.327Z,3.50
2017-12-11T22:12:12.588Z,3.20
2017-12-11T22:14:38.866Z,3.27
2017-12-11T22:17:05.835Z,2.93
2017-12-11T22:19:32.048Z,3.00
2017-12-11T22:21:59.232Z,3.10
2017-12-11T22:24:25.445Z,3.67
2017-12-11T22:26:51.590Z,3.27
2017-12-11T22:29:17.820Z,3.07
2017-12-11T22:31:44.004Z,2.57
2017-12-11T22:34:10.958Z,2.87
2017-12-11T22:36:37.178Z,2.60
2017-12-11T22:39:04.055Z,2.30
2017-12-11T22:41:30.259Z,2.60
2017-12-11T22:43:57.245Z,2.87
2017-12-11T22:46:23.455Z,2.30
2017-12-11T22:48:49.609Z,1.87
2017-12-11T22:51:15.894Z,1.60
2017-12-11T22:53:42.130Z,3.90
2017-12-11T22:56:08.340Z,1.90
2017-12-11T22:58:35.351Z,1.83
2017-12-11T23:01:01.542Z,1.73
2017-12-11T23:03:27.743Z,2.20
2017-12-11T23:05:54.673Z,1.80
2017-12-11T23:08:21.654Z,1.70
2017-12-11T23:10:47.906Z,1.67
2017-12-11T23:13:14.103Z,1.63
2017-12-11T23:15:40.279Z,1.77
2017-12-11T23:18:06.432Z,1.40
2017-12-11T23:20:32.632Z,1.70
2017-12-11T23:22:58.871Z,1.50
2017-12-11T23:25:25.814Z,1.60
2017-12-11T23:27:52.004Z,1.77
2017-12-11T23:30:18.203Z,1.80
2017-12-11T23:32:45.136Z,1.60
2017-12-11T23:35:12.082Z,1.93
2017-12-11T23:37:38.990Z,1.70
2017-12-11T23:40:05.159Z,1.80
2017-12-11T23:42:32.063Z,1.80
2017-12-11T23:44:58.302Z,1.90
2017-12-11T23:47:25.271Z,2.33
2017-12-11T23:49:52.189Z,2.00
2017-12-11T23:52:18.434Z,2.33
2017-12-11T23:54:45.356Z,1.87
2017-12-11T23:57:11.607Z,1.67
2017-12-11T23:59:37.808Z,1.70
